Time;durP1;ratioP1;P1;durP2;ratioP2;P2;SDS_P1;SDS_P2;PMS_P1;PMS_P2;Temp;Humidity;BMP_temperature;BMP_pressure;BME280_temperature;BME280_humidity;BME280_pressure;Samples;Min_cycle;Max_cycle;Signal;HPM_P1;HPM_P2
2023/01/18 00:01:01;;;;;;;7.33;6.47;;;2.40;99.90;;;;;;5018576;28;20531;-70
2023/01/18 00:03:27;;;;;;;6.83;6.13;;;2.30;99.90;;;;;;5036216;28;20185;-70
2023/01/18 00:05:53;;;;;;;7.27;6.20;;;2.30;99.90;;;;;;5037242;28;20498;-70
2023/01/18 00:08:19;;;;;;;8.60;7.50;;;2.40;99.90;;;;;;5030213;28;20206;-70
2023/01/18 00:10:45;;;;;;;9.00;7.00;;;2.40;99.90;;;;;;5014216;28;20814;-72
2023/01/18 00:13:10;;;;;;;8.10;6.77;;;2.40;99.90;;;;;;5033017;28;20195;-70
2023/01/18 00:15:38;;;;;;;6.70;6.07;;;2.40;99.90;;;;;;5033417;28;20669;-70
2023/01/18 00:18:03;;;;;;;8.60;6.60;;;2.40;99.90;;;;;;5032630;28;20479;-72
2023/01/18 00:20:30;;;;;;;7.37;6.70;;;2.50;99.90;;;;;;5033986;28;20830;-70
2023/01/18 00:22:58;;;;;;;6.97;5.73;;;2.50;99.90;;;;;;5032706;28;20186;-70
2023/01/18 00:25:24;;;;;;;8.30;7.00;;;2.50;99.90;;;;;;5037300;28;20490;-72
2023/01/18 00:27:52;;;;;;;7.70;6.93;;;2.50;99.90;;;;;;5032425;28;20449;-70
2023/01/18 00:30:22;;;;;;;7.80;6.60;;;2.50;99.90;;;;;;5039278;28;20272;-74
2023/01/18 00:32:48;;;;;;;8.70;6.90;;;2.50;99.90;;;;;;5030380;28;20471;-70
2023/01/18 00:35:14;;;;;;;8.23;6.50;;;2.40;99.90;;;;;;5034292;28;20432;-71
2023/01/18 00:37:40;;;;;;;6.10;5.53;;;2.50;99.90;;;;;;5031546;28;20471;-70
2023/01/18 00:40:07;;;;;;;7.17;6.47;;;2.40;99.90;;;;;;5039439;28;21012;-71
2023/01/18 00:45:17;;;;;;;6.70;6.07;;;2.50;99.90;;;;;;5037735;28;20952;-70
2023/01/18 00:47:42;;;;;;;6.90;6.20;;;2.60;99.90;;;;;;5032444;28;20464;-69
2023/01/18 00:50:09;;;;;;;7.30;6.27;;;2.50;99.90;;;;;;5030817;28;20556;-69
2023/01/18 00:52:34;;;;;;;7.70;6.97;;;2.60;99.90;;;;;;5034266;28;20198;-69
2023/01/18 00:55:01;;;;;;;9.33;6.73;;;2.60;99.90;;;;;;5035853;28;20526;-68
2023/01/18 00:57:26;;;;;;;7.00;6.30;;;2.60;99.90;;;;;;5033100;28;20190;-69
2023/01/18 00:59:52;;;;;;;8.07;7.10;;;2.70;99.90;;;;;;5037924;28;20431;-69
2023/01/18 01:02:17;;;;;;;8.73;7.87;;;2.60;99.90;;;;;;5032825;28;20186;-69
2023/01/18 01:07:27;;;;;;;6.80;6.20;;;2.60;99.90;;;;;;5029869;28;20248;-68
2023/01/18 01:09:52;;;;;;;7.67;6.30;;;2.60;99.90;;;;;;5031656;28;20460;-68
2023/01/18 01:26:07;;;;;;;9.73;7.13;;;2.40;99.90;;;;;;5035485;28;20925;-68
2023/01/18 01:28:43;;;;;;;10.17;8.07;;;2.30;99.90;;;;;;5023855;28;20495;-69
2023/01/18 01:31:13;;;;;;;9.37;7.40;;;2.40;99.90;;;;;;5038121;28;20460;-68
2023/01/18 01:33:39;;;;;;;9.10;7.07;;;2.50;99.90;;;;;;5031624;28;20436;-68
2023/01/18 01:36:09;;;;;;;7.77;6.63;;;2.50;99.90;;;;;;5029171;28;20433;-68
2023/01/18 01:38:34;;;;;;;7.30;6.47;;;2.50;99.90;;;;;;5030787;28;20311;-70
2023/01/18 01:41:06;;;;;;;7.30;6.40;;;2.50;99.90;;;;;;5033390;28;20437;-68
2023/01/18 01:43:49;;;;;;;10.10;7.50;;;2.50;99.90;;;;;;5030286;28;20681;-68
2023/01/18 01:46:21;;;;;;;9.70;7.90;;;2.50;99.90;;;;;;5038536;28;20472;-69
2023/01/18 01:48:47;;;;;;;10.77;8.90;;;2.50;99.90;;;;;;5030460;28;20510;-68
2023/01/18 01:51:17;;;;;;;9.73;8.67;;;2.50;99.90;;;;;;5016041;28;20967;-68
2023/01/18 01:53:43;;;;;;;9.10;7.50;;;2.50;99.90;;;;;;5031147;28;20512;-69
2023/01/18 01:56:10;;;;;;;10.87;8.37;;;2.50;99.90;;;;;;5030113;28;20494;-68
2023/01/18 01:58:36;;;;;;;12.13;9.93;;;2.50;99.90;;;;;;5030549;28;20488;-68
2023/01/18 02:01:01;;;;;;;13.23;10.80;;;2.50;99.90;;;;;;5033979;28;20481;-68
2023/01/18 02:03:29;;;;;;;11.03;9.80;;;2.50;99.90;;;;;;5029890;28;20663;-69
2023/01/18 02:06:04;;;;;;;15.37;11.20;;;2.40;99.90;;;;;;5038511;28;20240;-68
2023/01/18 02:08:29;;;;;;;11.30;9.30;;;2.50;99.90;;;;;;5008475;28;20459;-68
2023/01/18 02:10:55;;;;;;;11.70;9.83;;;2.50;99.90;;;;;;5036454;28;20432;-70
2023/01/18 02:13:23;;;;;;;12.43;10.33;;;2.40;99.90;;;;;;5030424;28;20671;-69
2023/01/18 02:16:03;;;;;;;14.63;11.17;;;2.40;99.90;;;;;;5015918;28;20178;-69
2023/01/18 02:19:21;;;;;;;12.57;9.43;;;2.40;99.90;;;;;;5029933;28;20475;-68
2023/01/18 02:21:58;;;;;;;12.87;9.83;;;2.40;99.90;;;;;;4989090;28;20491;-68
2023/01/18 02:24:59;;;;;;;13.57;9.90;;;2.40;99.90;;;;;;5033622;28;20447;-68
2023/01/18 02:27:32;;;;;;;12.93;9.77;;;2.40;99.90;;;;;;5032267;28;20456;-70
2023/01/18 02:29:57;;;;;;;12.47;10.40;;;2.30;99.90;;;;;;5029670;28;20483;-69
2023/01/18 02:32:36;;;;;;;12.23;9.37;;;2.30;99.90;;;;;;5039594;28;20862;-69
2023/01/18 02:35:09;;;;;;;11.30;9.23;;;2.30;99.90;;;;;;5033758;28;20181;-69
2023/01/18 02:38:09;;;;;;;12.67;10.43;;;2.40;99.90;;;;;;5031175;28;20868;-68
2023/01/18 02:41:00;;;;;;;12.00;9.20;;;2.30;99.90;;;;;;5031351;28;20432;-68
2023/01/18 02:46:29;;;;;;;15.37;9.80;;;2.30;99.90;;;;;;5034076;28;21148;-69
2023/01/18 02:48:56;;;;;;;11.70;8.97;;;2.30;99.90;;;;;;5029235;28;20437;-68
2023/01/18 02:51:23;;;;;;;10.43;8.70;;;2.20;99.90;;;;;;5042118;28;20470;-69
2023/01/18 02:53:48;;;;;;;11.50;9.10;;;2.10;99.90;;;;;;5034230;28;20803;-68
2023/01/18 02:56:22;;;;;;;11.93;8.90;;;2.10;99.90;;;;;;5038635;28;20428;-68
2023/01/18 02:59:12;;;;;;;10.50;8.97;;;2.10;99.90;;;;;;5031606;28;20676;-68
2023/01/18 03:01:46;;;;;;;10.80;8.30;;;2.20;99.90;;;;;;5041828;28;20941;-69
2023/01/18 03:04:22;;;;;;;10.07;8.60;;;2.10;99.90;;;;;;5015938;28;20444;-68
2023/01/18 03:06:56;;;;;;;15.70;10.27;;;2.00;99.90;;;;;;5038951;28;20458;-70
2023/01/18 03:09:25;;;;;;;13.37;9.50;;;2.00;99.90;;;;;;5035863;28;20441;-69
2023/01/18 03:12:10;;;;;;;12.23;9.90;;;2.10;99.90;;;;;;5043477;28;20456;-68
2023/01/18 03:14:54;;;;;;;16.43;12.43;;;2.00;99.90;;;;;;5031165;28;20557;-69
2023/01/18 03:17:28;;;;;;;14.80;11.97;;;2.00;99.90;;;;;;5032362;28;20495;-69
2023/01/18 03:20:07;;;;;;;15.97;12.57;;;1.90;99.90;;;;;;5032954;28;20479;-69
2023/01/18 03:25:29;;;;;;;16.10;11.60;;;1.90;99.90;;;;;;5041487;28;20845;-68
2023/01/18 03:33:46;;;;;;;17.00;11.63;;;1.70;99.90;;;;;;5034044;28;20821;-69
2023/01/18 03:36:16;;;;;;;14.17;10.13;;;1.80;99.90;;;;;;5033183;28;20516;-69
2023/01/18 03:38:45;;;;;;;14.60;10.17;;;1.70;99.90;;;;;;5030995;28;20453;-70
2023/01/18 03:41:12;;;;;;;13.90;11.20;;;1.80;99.90;;;;;;5032110;28;20444;-69
2023/01/18 03:43:40;;;;;;;13.43;10.07;;;1.80;99.90;;;;;;5032987;28;20499;-69
2023/01/18 03:46:07;;;;;;;12.53;9.07;;;1.90;99.90;;;;;;5040161;28;20523;-69
2023/01/18 03:48:35;;;;;;;14.50;11.30;;;1.90;99.90;;;;;;5031872;28;20492;-69
2023/01/18 03:51:17;;;;;;;16.27;12.10;;;1.90;99.90;;;;;;5040740;28;20512;-70
2023/01/18 03:54:03;;;;;;;12.57;10.40;;;1.90;99.90;;;;;;5033297;28;20523;-69
2023/01/18 03:56:37;;;;;;;15.00;10.03;;;1.90;99.90;;;;;;5012829;28;20452;-69
2023/01/18 03:59:04;;;;;;;11.53;9.43;;;1.90;99.90;;;;;;5032322;28;20446;-69
2023/01/18 04:01:30;;;;;;;12.23;9.83;;;1.80;99.90;;;;;;5032543;28;20447;-70
2023/01/18 04:03:55;;;;;;;15.47;10.23;;;1.80;99.90;;;;;;5032587;28;20809;-69
2023/01/18 04:06:22;;;;;;;9.93;7.83;;;1.80;99.90;;;;;;5026144;28;20941;-70
2023/01/18 04:08:51;;;;;;;12.00;9.43;;;1.80;99.90;;;;;;5032323;28;20229;-71
2023/01/18 04:11:17;;;;;;;13.27;11.10;;;1.80;99.90;;;;;;5040585;28;20464;-69
2023/01/18 04:13:43;;;;;;;11.67;8.97;;;1.80;99.90;;;;;;5014734;28;20502;-69
2023/01/18 04:16:08;;;;;;;11.33;8.73;;;1.90;99.90;;;;;;5032046;28;20176;-70
2023/01/18 04:18:34;;;;;;;11.80;10.00;;;1.80;99.90;;;;;;5038200;28;20213;-71
2023/01/18 04:20:59;;;;;;;10.07;8.27;;;1.90;99.90;;;;;;5032795;28;20196;-69
2023/01/18 04:23:25;;;;;;;9.73;8.47;;;1.90;99.90;;;;;;5019846;28;20542;-71
2023/01/18 04:25:51;;;;;;;9.57;7.97;;;2.00;99.90;;;;;;5032139;28;20197;-71
2023/01/18 04:28:24;;;;;;;10.47;8.33;;;2.00;99.90;;;;;;5039706;28;20211;-69
2023/01/18 04:30:51;;;;;;;10.30;8.50;;;1.90;99.90;;;;;;5031562;28;20457;-69
2023/01/18 04:33:17;;;;;;;11.77;8.77;;;1.90;99.90;;;;;;5037363;28;20429;-69
2023/01/18 04:35:43;;;;;;;11.83;9.27;;;1.90;99.90;;;;;;5033111;28;20424;-69
2023/01/18 04:38:08;;;;;;;10.50;8.20;;;1.90;99.90;;;;;;5030596;28;20518;-72
2023/01/18 04:40:34;;;;;;;11.53;9.30;;;1.80;99.90;;;;;;5032500;28;20178;-69
2023/01/18 04:42:59;;;;;;;16.40;11.53;;;1.90;99.90;;;;;;5035777;28;20190;-69
2023/01/18 04:45:24;;;;;;;12.63;10.40;;;1.90;99.90;;;;;;5037046;28;20641;-69
2023/01/18 04:47:50;;;;;;;11.77;9.10;;;1.80;99.90;;;;;;5038151;28;20215;-68
2023/01/18 04:50:16;;;;;;;11.73;8.20;;;1.80;99.90;;;;;;5031888;28;20188;-69
2023/01/18 04:52:41;;;;;;;12.90;8.40;;;1.80;99.90;;;;;;5031661;28;20206;-69
2023/01/18 04:55:07;;;;;;;11.63;8.80;;;1.80;99.90;;;;;;5040892;28;20185;-69
2023/01/18 04:57:33;;;;;;;9.90;7.97;;;1.80;99.90;;;;;;5036195;28;20198;-70
2023/01/18 05:00:01;;;;;;;9.83;8.07;;;1.80;99.90;;;;;;5031434;28;20517;-69
2023/01/18 05:02:26;;;;;;;10.40;8.93;;;1.70;99.90;;;;;;5039442;28;20174;-69
2023/01/18 05:04:52;;;;;;;9.10;8.00;;;1.80;99.90;;;;;;5030625;28;20859;-71
2023/01/18 05:07:17;;;;;;;11.10;9.27;;;1.80;99.90;;;;;;5031382;28;20201;-69
2023/01/18 05:09:43;;;;;;;11.00;8.83;;;1.80;99.90;;;;;;5038810;28;20240;-69
2023/01/18 05:12:08;;;;;;;9.10;7.03;;;1.70;99.90;;;;;;5031703;28;20202;-70
2023/01/18 05:14:34;;;;;;;10.40;8.20;;;1.70;99.90;;;;;;5037274;28;20178;-69
2023/01/18 05:16:59;;;;;;;9.07;8.20;;;1.60;99.90;;;;;;5045571;22;20206;-68
2023/01/18 05:19:29;;;;;;;8.80;7.63;;;1.60;99.90;;;;;;5009349;28;20207;-68
2023/01/18 05:21:55;;;;;;;8.67;7.83;;;1.60;99.90;;;;;;5007423;28;20182;-68
2023/01/18 05:24:20;;;;;;;11.77;8.60;;;1.50;99.90;;;;;;5018496;28;20492;-68
2023/01/18 05:26:45;;;;;;;8.17;7.37;;;1.50;99.90;;;;;;5012097;28;20187;-68
2023/01/18 05:29:11;;;;;;;9.43;7.73;;;1.40;99.90;;;;;;5016974;28;20175;-68
2023/01/18 05:31:36;;;;;;;8.73;7.27;;;1.30;99.90;;;;;;5011309;28;20273;-68
2023/01/18 05:34:02;;;;;;;8.50;7.13;;;1.30;99.90;;;;;;5027848;28;20182;-67
2023/01/18 05:36:27;;;;;;;7.40;6.47;;;1.30;99.90;;;;;;5011953;28;20179;-67
2023/01/18 05:38:53;;;;;;;8.30;7.20;;;1.30;99.90;;;;;;4992530;28;20290;-68
2023/01/18 05:41:20;;;;;;;8.23;7.30;;;1.30;99.90;;;;;;5010602;28;20183;-68
2023/01/18 05:43:45;;;;;;;7.13;6.43;;;1.30;99.90;;;;;;5012252;28;20452;-68
2023/01/18 05:46:11;;;;;;;8.23;6.20;;;1.20;99.90;;;;;;5013102;28;20433;-68
2023/01/18 05:48:36;;;;;;;7.63;6.37;;;1.30;99.90;;;;;;5010627;28;20202;-68
2023/01/18 05:51:07;;;;;;;7.63;5.27;;;1.20;99.90;;;;;;5011191;28;20189;-67
2023/01/18 05:53:33;;;;;;;7.03;5.70;;;1.30;99.90;;;;;;5008351;28;20176;-68
2023/01/18 05:56:01;;;;;;;6.40;5.80;;;1.40;99.90;;;;;;5009899;28;20819;-67
2023/01/18 05:58:27;;;;;;;8.00;5.23;;;1.40;99.90;;;;;;5008487;28;20199;-67
2023/01/18 06:00:53;;;;;;;5.93;5.27;;;1.50;99.90;;;;;;5014130;28;20452;-68
2023/01/18 06:03:19;;;;;;;6.20;5.10;;;1.40;99.90;;;;;;5011710;28;20445;-68
2023/01/18 06:05:45;;;;;;;6.00;5.40;;;1.40;99.90;;;;;;5017031;28;20194;-68
2023/01/18 06:08:11;;;;;;;6.80;5.67;;;1.50;99.90;;;;;;5013049;28;20679;-68
2023/01/18 06:10:37;;;;;;;7.10;6.10;;;1.50;99.90;;;;;;5023921;28;20441;-68
2023/01/18 06:13:04;;;;;;;7.10;6.17;;;1.50;99.90;;;;;;5011861;28;20218;-68
2023/01/18 06:15:30;;;;;;;6.43;5.83;;;1.50;99.90;;;;;;5018730;28;20449;-68
2023/01/18 06:17:55;;;;;;;5.90;5.40;;;1.50;99.90;;;;;;5012949;28;20473;-68
2023/01/18 06:20:21;;;;;;;7.60;5.30;;;1.50;99.90;;;;;;5013684;28;20675;-68
2023/01/18 06:22:46;;;;;;;5.60;4.83;;;1.50;99.90;;;;;;5014573;28;20182;-68
2023/01/18 06:25:12;;;;;;;7.77;5.70;;;1.40;99.90;;;;;;5015196;28;20194;-68
2023/01/18 06:27:38;;;;;;;5.87;5.23;;;1.40;99.90;;;;;;5014819;28;20256;-68
2023/01/18 06:30:05;;;;;;;6.63;5.10;;;1.40;99.90;;;;;;5008131;28;20874;-68
2023/01/18 06:32:30;;;;;;;5.90;4.90;;;1.40;99.90;;;;;;5012770;28;20650;-68
2023/01/18 06:34:56;;;;;;;6.27;5.37;;;1.40;99.90;;;;;;5015068;28;20446;-68
2023/01/18 06:37:21;;;;;;;5.67;5.17;;;1.50;99.90;;;;;;5019432;28;20668;-68
2023/01/18 06:39:47;;;;;;;5.40;4.90;;;1.50;99.90;;;;;;5017663;28;20274;-68
2023/01/18 06:42:12;;;;;;;6.40;4.57;;;1.40;99.90;;;;;;5002929;28;20183;-68
2023/01/18 06:44:38;;;;;;;10.40;5.77;;;1.30;99.90;;;;;;5015042;28;20258;-68
2023/01/18 06:47:03;;;;;;;6.77;6.10;;;1.40;99.90;;;;;;5014941;28;20218;-68
2023/01/18 06:49:29;;;;;;;9.40;5.10;;;1.40;99.90;;;;;;5023665;28;20174;-68
2023/01/18 06:51:54;;;;;;;6.97;5.43;;;1.30;99.90;;;;;;5016068;28;20278;-68
2023/01/18 06:54:20;;;;;;;7.13;5.67;;;1.40;99.90;;;;;;5025630;28;20171;-68
2023/01/18 06:56:47;;;;;;;8.50;6.33;;;1.30;99.90;;;;;;5026143;28;20631;-68
2023/01/18 06:59:12;;;;;;;7.13;6.20;;;1.30;99.90;;;;;;5016984;28;20253;-66
2023/01/18 07:01:38;;;;;;;7.10;6.13;;;1.20;99.90;;;;;;5022138;28;20524;-68
2023/01/18 07:04:04;;;;;;;6.70;6.00;;;1.20;99.90;;;;;;5022475;28;20277;-68
2023/01/18 07:06:31;;;;;;;12.03;6.07;;;1.20;99.90;;;;;;5021734;28;20183;-68
2023/01/18 07:08:56;;;;;;;7.63;6.60;;;1.20;99.90;;;;;;5020120;28;20463;-68
2023/01/18 07:11:22;;;;;;;7.03;6.20;;;1.20;99.90;;;;;;5013572;28;20561;-68
2023/01/18 07:13:48;;;;;;;6.93;6.00;;;1.20;99.90;;;;;;5028537;28;20591;-68
2023/01/18 07:16:18;;;;;;;5.90;5.20;;;1.20;99.90;;;;;;5019330;28;20198;-68
2023/01/18 07:18:47;;;;;;;6.13;5.50;;;1.20;99.90;;;;;;5025099;28;20819;-69
2023/01/18 07:21:13;;;;;;;6.77;6.07;;;1.30;99.90;;;;;;5011244;28;20516;-69
2023/01/18 07:23:40;;;;;;;8.03;6.20;;;1.30;99.90;;;;;;5014278;28;20449;-69
2023/01/18 07:26:08;;;;;;;6.20;5.60;;;1.40;99.90;;;;;;5013613;28;20471;-69
2023/01/18 07:28:35;;;;;;;5.97;5.30;;;1.30;99.90;;;;;;5012776;28;20453;-68
2023/01/18 07:31:01;;;;;;;7.53;5.87;;;1.30;99.90;;;;;;5011319;28;20935;-69
2023/01/18 07:33:28;;;;;;;8.23;5.70;;;1.30;99.90;;;;;;5016976;28;20482;-69
2023/01/18 07:35:54;;;;;;;8.30;6.50;;;1.30;99.90;;;;;;5025518;28;20984;-69
2023/01/18 07:38:21;;;;;;;10.10;7.10;;;1.40;99.90;;;;;;5022216;28;20453;-69
2023/01/18 07:40:47;;;;;;;8.13;6.50;;;1.50;99.90;;;;;;5009967;28;20995;-69
2023/01/18 07:43:14;;;;;;;10.40;7.20;;;1.50;99.90;;;;;;5010668;28;20446;-69
2023/01/18 07:45:40;;;;;;;7.07;6.33;;;1.50;99.90;;;;;;5016526;28;20819;-70
2023/01/18 07:48:05;;;;;;;11.23;7.47;;;1.40;99.90;;;;;;5017180;28;20457;-70
2023/01/18 07:50:34;;;;;;;8.07;6.80;;;1.50;99.90;;;;;;5015844;28;20186;-69
2023/01/18 07:53:05;;;;;;;9.77;7.20;;;1.50;99.90;;;;;;5012776;28;20222;-69
2023/01/18 07:55:31;;;;;;;8.30;7.23;;;1.50;99.90;;;;;;5007939;28;20446;-69
2023/01/18 07:57:58;;;;;;;9.10;7.30;;;1.50;99.90;;;;;;5010559;28;20891;-71
2023/01/18 08:00:24;;;;;;;8.07;7.23;;;1.40;99.90;;;;;;5010305;28;20445;-69
2023/01/18 08:02:50;;;;;;;8.87;6.93;;;1.30;99.90;;;;;;5010903;28;20442;-70
2023/01/18 08:05:19;;;;;;;7.10;6.00;;;1.30;99.90;;;;;;5012821;28;20463;-70
2023/01/18 08:07:45;;;;;;;10.70;7.30;;;1.30;99.90;;;;;;5021675;28;20927;-69
2023/01/18 08:10:11;;;;;;;9.70;7.67;;;1.40;99.90;;;;;;5012020;28;20478;-69
2023/01/18 08:12:36;;;;;;;8.20;6.80;;;1.50;99.90;;;;;;5014545;28;20214;-69
2023/01/18 08:15:03;;;;;;;10.77;7.07;;;1.40;99.90;;;;;;5018739;28;20182;-69
2023/01/18 08:17:29;;;;;;;6.83;6.23;;;1.20;99.90;;;;;;5012502;28;20206;-71
2023/01/18 08:19:55;;;;;;;9.50;6.57;;;1.20;99.90;;;;;;5008991;28;20797;-70
2023/01/18 08:22:20;;;;;;;11.80;7.63;;;1.20;99.90;;;;;;5011622;28;20436;-71
2023/01/18 08:24:46;;;;;;;7.77;7.07;;;1.40;99.90;;;;;;5010453;28;20273;-70
2023/01/18 08:27:12;;;;;;;9.63;8.43;;;1.50;99.90;;;;;;5012154;28;20195;-70
2023/01/18 08:29:37;;;;;;;9.30;8.37;;;1.60;99.90;;;;;;5011760;28;20181;-70
2023/01/18 08:32:03;;;;;;;10.90;8.40;;;1.70;99.90;;;;;;5004849;28;20203;-70
2023/01/18 08:34:28;;;;;;;12.13;8.23;;;1.60;99.90;;;;;;5004758;28;20197;-69
2023/01/18 08:36:54;;;;;;;9.37;8.23;;;1.70;99.90;;;;;;5018305;28;20201;-69
2023/01/18 08:39:19;;;;;;;9.07;8.03;;;1.70;99.90;;;;;;5021449;28;20256;-70
2023/01/18 08:41:45;;;;;;;8.90;7.20;;;1.60;99.90;;;;;;5020206;28;20309;-70
2023/01/18 08:44:11;;;;;;;9.00;7.50;;;1.60;99.90;;;;;;5015995;28;20175;-70
2023/01/18 08:46:38;;;;;;;8.33;7.50;;;1.60;99.90;;;;;;5011006;28;20511;-70
2023/01/18 08:49:05;;;;;;;7.87;7.17;;;1.70;99.90;;;;;;5018565;28;20467;-70
2023/01/18 08:51:30;;;;;;;9.53;8.27;;;1.70;99.90;;;;;;5016359;28;20465;-70
2023/01/18 08:53:58;;;;;;;8.20;7.50;;;1.70;99.90;;;;;;5013315;28;20435;-70
2023/01/18 08:56:24;;;;;;;9.50;8.13;;;1.60;99.90;;;;;;5023082;28;20179;-70
2023/01/18 08:58:50;;;;;;;8.70;7.10;;;1.80;99.90;;;;;;5017810;28;20512;-70
2023/01/18 09:01:16;;;;;;;7.53;6.83;;;1.90;99.90;;;;;;5010059;28;20524;-70
2023/01/18 09:03:42;;;;;;;8.73;7.80;;;1.80;99.90;;;;;;5009802;28;20512;-70
2023/01/18 09:06:08;;;;;;;7.23;6.60;;;1.80;99.90;;;;;;5014569;28;20434;-69
2023/01/18 09:08:33;;;;;;;7.60;6.80;;;1.90;99.90;;;;;;5008253;28;20214;-70
2023/01/18 09:11:04;;;;;;;8.67;7.57;;;1.80;99.90;;;;;;5020609;28;20189;-70
2023/01/18 09:13:30;;;;;;;8.60;6.37;;;1.80;99.90;;;;;;5011479;28;20209;-71
2023/01/18 09:16:06;;;;;;;10.53;6.63;;;1.70;99.90;;;;;;5011677;28;20544;-71
2023/01/18 09:18:32;;;;;;;7.77;6.17;;;1.80;99.90;;;;;;5012523;28;20468;-70
2023/01/18 09:21:03;;;;;;;8.60;6.67;;;2.10;99.90;;;;;;5013093;28;20492;-70
2023/01/18 09:23:28;;;;;;;6.20;5.60;;;2.10;99.90;;;;;;5016946;28;20487;-70
2023/01/18 09:26:09;;;;;;;7.37;6.30;;;2.10;99.90;;;;;;5015577;28;20862;-70
2023/01/18 09:28:35;;;;;;;7.30;5.43;;;1.80;99.90;;;;;;5011239;28;20206;-70
2023/01/18 09:31:08;;;;;;;6.53;5.47;;;2.00;99.90;;;;;;5017896;28;20437;-68
2023/01/18 09:33:34;;;;;;;6.43;5.80;;;2.20;99.90;;;;;;5010833;28;20440;-69
2023/01/18 09:36:06;;;;;;;10.67;7.20;;;2.10;99.90;;;;;;5019190;28;21112;-69
2023/01/18 09:38:32;;;;;;;8.03;6.40;;;2.30;99.90;;;;;;5017445;28;21046;-70
2023/01/18 09:40:59;;;;;;;7.80;5.97;;;2.30;99.90;;;;;;5020024;28;20434;-69
2023/01/18 09:43:39;;;;;;;6.67;5.50;;;2.30;99.90;;;;;;5014080;28;20969;-69
2023/01/18 09:46:20;;;;;;;7.80;6.30;;;2.40;99.90;;;;;;5017293;28;20572;-69
2023/01/18 09:48:53;;;;;;;6.37;5.87;;;2.50;99.90;;;;;;5020262;28;20456;-67
2023/01/18 09:51:24;;;;;;;7.90;6.50;;;2.30;99.90;;;;;;5011403;28;20426;-69
2023/01/18 09:53:55;;;;;;;7.30;6.20;;;2.30;99.90;;;;;;5012844;28;20804;-69
2023/01/18 09:56:26;;;;;;;7.93;5.30;;;2.10;99.90;;;;;;5016451;28;20434;-68
2023/01/18 09:59:04;;;;;;;8.17;6.07;;;2.10;99.90;;;;;;5014320;28;20504;-68
2023/01/18 10:01:33;;;;;;;6.50;5.90;;;2.10;99.90;;;;;;5017880;28;20797;-69
2023/01/18 10:04:11;;;;;;;8.70;7.47;;;2.00;99.90;;;;;;5010186;28;20437;-70
2023/01/18 10:06:48;;;;;;;9.40;6.73;;;2.10;99.90;;;;;;5007918;28;20434;-68
2023/01/18 10:09:21;;;;;;;10.20;6.57;;;2.20;99.90;;;;;;5009270;28;20996;-69
2023/01/18 10:12:00;;;;;;;6.07;5.47;;;2.00;99.90;;;;;;5013840;28;20461;-68
2023/01/18 10:14:40;;;;;;;7.00;5.80;;;2.30;99.90;;;;;;5002766;28;20495;-69
2023/01/18 10:17:34;;;;;;;7.30;6.13;;;2.60;99.90;;;;;;5008293;28;20449;-69
2023/01/18 10:20:00;;;;;;;6.40;5.70;;;2.50;99.90;;;;;;5015098;28;20441;-68
2023/01/18 10:22:48;;;;;;;7.70;6.57;;;2.50;99.90;;;;;;5009483;28;20977;-68
2023/01/18 10:25:27;;;;;;;7.23;6.53;;;2.60;99.90;;;;;;5010129;28;20449;-68
2023/01/18 10:28:31;;;;;;;8.43;6.70;;;2.80;99.90;;;;;;5013064;28;20532;-69
2023/01/18 10:31:02;;;;;;;6.47;5.40;;;2.90;99.90;;;;;;5014447;28;20434;-69
2023/01/18 10:33:32;;;;;;;6.50;5.50;;;3.10;99.90;;;;;;5010424;28;20958;-69
2023/01/18 10:36:04;;;;;;;5.70;5.10;;;3.20;99.90;;;;;;5012641;28;20438;-69
2023/01/18 10:38:30;;;;;;;7.60;5.27;;;3.40;99.90;;;;;;5012882;28;20458;-69
2023/01/18 10:41:01;;;;;;;6.40;5.80;;;3.40;99.90;;;;;;5018859;28;20947;-69
2023/01/18 10:43:29;;;;;;;6.07;5.47;;;3.50;99.90;;;;;;5019000;28;20195;-68
2023/01/18 10:45:54;;;;;;;9.97;8.37;;;3.40;99.90;;;;;;5021358;28;20511;-68
2023/01/18 10:48:30;;;;;;;7.37;6.53;;;3.40;99.90;;;;;;5013734;28;20548;-68
2023/01/18 10:51:06;;;;;;;10.50;6.10;;;3.40;99.90;;;;;;5012694;28;20706;-69
2023/01/18 10:53:32;;;;;;;6.40;5.80;;;3.40;99.90;;;;;;5009977;28;20516;-69
2023/01/18 10:56:12;;;;;;;8.00;7.20;;;3.00;99.90;;;;;;5003122;28;20487;-68
2023/01/18 10:58:50;;;;;;;11.97;6.10;;;2.90;99.90;;;;;;5000338;28;20453;-68
2023/01/18 11:01:21;;;;;;;8.83;6.30;;;3.00;99.90;;;;;;5022961;28;20428;-69
2023/01/18 11:03:50;;;;;;;10.13;6.60;;;2.70;99.90;;;;;;5008287;28;20430;-68
2023/01/18 11:06:19;;;;;;;6.73;5.77;;;2.70;99.90;;;;;;5017111;28;20518;-69
2023/01/18 11:08:45;;;;;;;7.37;6.70;;;2.70;99.90;;;;;;5015436;28;21780;-69
2023/01/18 11:12:32;;;;;;;7.67;6.50;;;2.60;99.90;;;;;;5020744;28;20449;-69
2023/01/18 11:14:30;;;;;;;10.93;7.70;;;2.70;99.90;;;;;;5019066;28;20429;-69
2023/01/18 11:16:58;;;;;;;9.90;7.07;;;2.90;99.90;;;;;;5017491;28;20456;-67
2023/01/18 11:19:24;;;;;;;9.77;6.77;;;3.10;99.90;;;;;;5021070;28;20845;-67
2023/01/18 11:21:51;;;;;;;10.33;7.60;;;3.10;99.90;;;;;;5016580;28;20464;-68
2023/01/18 11:24:28;;;;;;;8.17;6.23;;;3.10;99.90;;;;;;5014792;28;20473;-68
2023/01/18 11:26:58;;;;;;;6.97;6.27;;;2.90;99.90;;;;;;5018222;28;20444;-67
2023/01/18 11:29:30;;;;;;;6.60;6.00;;;2.80;99.90;;;;;;5011190;28;20444;-68
2023/01/18 11:32:05;;;;;;;7.67;6.00;;;3.00;99.90;;;;;;5010613;28;20546;-68
2023/01/18 11:34:35;;;;;;;7.57;6.80;;;3.10;99.90;;;;;;5010739;28;20853;-66
2023/01/18 11:37:01;;;;;;;6.60;6.00;;;3.00;99.90;;;;;;5008507;28;20429;-68
2023/01/18 11:39:28;;;;;;;7.03;6.00;;;2.90;99.90;;;;;;5013120;28;20568;-68
2023/01/18 11:42:29;;;;;;;7.53;6.07;;;2.90;99.90;;;;;;5009593;28;20475;-67
2023/01/18 11:45:04;;;;;;;11.63;7.50;;;2.80;99.90;;;;;;5010110;28;20465;-67
2023/01/18 11:48:22;;;;;;;9.43;5.80;;;2.80;99.90;;;;;;5015703;28;20487;-68
2023/01/18 11:51:14;;;;;;;7.03;5.47;;;2.80;99.90;;;;;;5003624;28;20445;-68
2023/01/18 11:53:46;;;;;;;8.30;5.47;;;2.60;99.90;;;;;;5012887;28;20438;-67
2023/01/18 11:56:12;;;;;;;7.73;5.80;;;2.60;99.90;;;;;;5015595;28;20429;-68
2023/01/18 11:58:38;;;;;;;7.50;5.50;;;2.70;99.90;;;;;;5014662;28;20506;-67
2023/01/18 12:01:24;;;;;;;6.13;5.33;;;2.70;99.90;;;;;;5020144;28;20258;-67
2023/01/18 12:04:14;;;;;;;6.17;5.57;;;2.90;99.90;;;;;;5018066;28;20834;-67
2023/01/18 12:07:06;;;;;;;7.63;5.00;;;2.80;99.90;;;;;;5017273;28;20441;-66
2023/01/18 12:09:51;;;;;;;5.63;5.07;;;2.90;99.90;;;;;;5015267;28;20977;-67
2023/01/18 12:12:43;;;;;;;6.20;4.70;;;2.90;99.90;;;;;;5022753;28;20468;-67
2023/01/18 12:15:15;;;;;;;5.47;4.50;;;2.80;99.90;;;;;;5017414;28;20596;-67
2023/01/18 12:17:55;;;;;;;8.00;4.50;;;2.80;99.90;;;;;;5006709;28;21008;-69
2023/01/18 12:20:30;;;;;;;4.83;4.43;;;2.90;99.90;;;;;;5007733;28;20484;-68
2023/01/18 12:23:04;;;;;;;7.70;5.27;;;2.90;99.90;;;;;;5008020;28;20832;-68
2023/01/18 12:26:00;;;;;;;5.20;4.70;;;3.20;99.90;;;;;;5010722;28;20433;-68
2023/01/18 12:28:49;;;;;;;7.20;4.50;;;3.50;99.90;;;;;;5017750;28;20460;-67
2023/01/18 12:31:37;;;;;;;7.40;5.00;;;3.60;99.90;;;;;;5010269;28;20524;-68
2023/01/18 12:34:11;;;;;;;6.53;5.80;;;3.60;99.90;;;;;;5012579;28;20487;-68
2023/01/18 12:37:18;;;;;;;5.63;5.03;;;3.40;99.90;;;;;;5006865;28;20938;-68
2023/01/18 12:40:05;;;;;;;4.80;4.30;;;3.50;99.90;;;;;;5008510;28;20814;-68
2023/01/18 12:42:53;;;;;;;8.90;5.63;;;3.40;99.90;;;;;;5008000;28;20431;-68
2023/01/18 12:45:39;;;;;;;4.73;4.33;;;3.60;99.90;;;;;;4992548;28;20584;-69
2023/01/18 12:48:23;;;;;;;6.57;5.00;;;3.40;99.90;;;;;;5010851;28;20973;-68
2023/01/18 12:50:49;;;;;;;5.87;5.27;;;3.50;99.90;;;;;;5011312;28;20438;-69
2023/01/18 12:53:32;;;;;;;9.53;4.90;;;3.50;99.90;;;;;;5011884;28;20466;-68
2023/01/18 12:56:05;;;;;;;6.67;5.13;;;3.50;99.90;;;;;;5020528;28;20444;-69
2023/01/18 12:58:30;;;;;;;8.73;5.97;;;3.40;99.90;;;;;;5016367;28;20456;-68
2023/01/18 13:01:01;;;;;;;5.50;5.00;;;3.40;99.90;;;;;;5013833;28;20444;-68
2023/01/18 13:03:37;;;;;;;6.60;5.23;;;3.30;99.90;;;;;;5010125;28;20740;-68
2023/01/18 13:06:03;;;;;;;5.73;5.23;;;3.30;99.90;;;;;;5009455;28;21024;-69
2023/01/18 13:08:54;;;;;;;6.60;4.90;;;3.40;99.90;;;;;;5010061;28;20461;-68
2023/01/18 13:11:33;;;;;;;5.80;5.20;;;3.40;99.90;;;;;;5015127;28;20227;-68
2023/01/18 13:14:32;;;;;;;6.40;5.77;;;3.30;99.90;;;;;;5013844;28;21977;-69
2023/01/18 13:17:22;;;;;;;7.43;5.47;;;3.30;99.90;;;;;;5008744;28;20433;-69
2023/01/18 13:19:59;;;;;;;7.90;4.93;;;3.30;99.90;;;;;;5005035;28;20556;-69
2023/01/18 13:22:27;;;;;;;6.80;4.90;;;3.30;99.90;;;;;;5009407;28;20455;-68
2023/01/18 13:25:30;;;;;;;5.27;4.43;;;3.20;99.90;;;;;;5006080;28;20429;-68
2023/01/18 13:28:04;;;;;;;6.00;4.77;;;3.20;99.90;;;;;;5007040;28;20453;-67
2023/01/18 13:30:32;;;;;;;6.63;4.97;;;3.20;99.90;;;;;;5009285;28;20502;-68
2023/01/18 13:32:58;;;;;;;5.63;4.53;;;3.20;99.90;;;;;;5010264;28;20465;-69
2023/01/18 13:35:32;;;;;;;7.83;4.60;;;3.30;99.90;;;;;;5009767;28;20866;-69
2023/01/18 13:38:10;;;;;;;6.77;4.70;;;3.20;99.90;;;;;;5007198;28;20233;-68
2023/01/18 13:40:38;;;;;;;6.60;4.60;;;3.20;99.90;;;;;;5007309;28;20461;-69
2023/01/18 13:43:24;;;;;;;10.33;4.97;;;3.10;99.90;;;;;;5019641;28;20546;-69